Time;durP1;ratioP1;P1;durP2;ratioP2;P2;SDS_P1;SDS_P2;PMS_P1;PMS_P2;Temp;Humidity;BMP_temperature;BMP_pressure;BME280_temperature;BME280_humidity;BME280_pressure;Samples;Min_cycle;Max_cycle;Signal;HPM_P1;HPM_P2
2021/11/30 00:01:16;;;;;;;;;18.25;12.00;;;;;5.98;65.53;101658.41;5039025;28;45478;-78
2021/11/30 00:03:41;;;;;;;;;10.75;10.25;;;;;6.06;65.88;101665.69;5034950;28;45235;-76
2021/11/30 00:06:06;;;;;;;;;16.00;12.00;;;;;6.07;65.61;101665.75;5028295;28;46035;-76
2021/11/30 00:08:33;;;;;;;;;11.75;11.00;;;;;6.03;65.82;101666.47;5059170;28;45556;-77
2021/11/30 00:11:00;;;;;;;;;17.00;10.00;;;;;6.10;65.84;101658.03;5036194;28;47727;-77
2021/11/30 00:13:28;;;;;;;;;10.25;10.25;;;;;6.08;65.89;101654.47;5021480;28;45380;-76
2021/11/30 00:15:55;;;;;;;;;11.00;10.50;;;;;6.14;65.83;101659.94;5052694;28;45219;-76
2021/11/30 00:18:20;;;;;;;;;13.75;12.00;;;;;6.18;65.58;101660.97;5032333;28;45435;-76
2021/11/30 00:20:46;;;;;;;;;12.25;10.00;;;;;6.22;65.77;101671.66;5051572;28;66886;-79
2021/11/30 00:23:12;;;;;;;;;11.25;9.75;;;;;6.24;65.75;101659.50;5029842;28;45367;-76
2021/11/30 00:25:37;;;;;;;;;8.25;8.25;;;;;6.25;65.55;101650.81;5051142;28;45465;-80
2021/11/30 00:28:03;;;;;;;;;14.25;9.50;;;;;6.26;65.87;101643.84;5032906;28;45344;-79
2021/11/30 00:30:30;;;;;;;;;12.00;9.25;;;;;6.28;65.74;101648.31;5015681;28;47344;-76
2021/11/30 00:32:55;;;;;;;;;11.75;9.50;;;;;6.32;65.53;101651.06;5049088;28;45363;-77
2021/11/30 00:35:22;;;;;;;;;10.00;8.75;;;;;6.38;65.68;101656.53;5028268;28;45245;-78
2021/11/30 00:37:47;;;;;;;;;13.25;10.00;;;;;6.41;65.73;101648.81;5047603;28;45367;-77
2021/11/30 00:40:13;;;;;;;;;13.00;9.75;;;;;6.44;65.86;101646.31;5054935;28;45562;-77
2021/11/30 00:42:38;;;;;;;;;6.00;6.00;;;;;6.48;65.86;101640.34;5027100;28;45348;-77
2021/11/30 00:45:05;;;;;;;;;12.00;9.50;;;;;6.44;65.67;101627.94;5046182;28;45304;-77
2021/11/30 00:47:31;;;;;;;;;8.25;8.00;;;;;6.48;65.73;101638.63;5023889;28;45725;-78
2021/11/30 00:50:02;;;;;;;;;10.00;6.00;;;;;6.42;65.80;101629.63;5055892;28;48507;-77
2021/11/30 00:52:27;;;;;;;;;12.00;9.00;;;;;6.44;65.87;101641.06;5007356;28;45536;-76
2021/11/30 00:54:53;;;;;;;;;6.50;6.25;;;;;6.40;66.08;101642.69;5057753;28;52858;-79
2021/11/30 00:57:18;;;;;;;;;9.00;8.50;;;;;6.40;66.02;101644.41;5040088;28;45268;-76
2021/11/30 00:59:44;;;;;;;;;11.75;10.25;;;;;6.42;66.20;101642.72;5054209;28;46544;-76
2021/11/30 01:02:09;;;;;;;;;11.25;9.00;;;;;6.43;66.22;101632.28;5047379;28;45443;-79
2021/11/30 01:04:34;;;;;;;;;10.00;9.75;;;;;6.50;66.16;101641.34;5044241;28;53156;-79
2021/11/30 01:07:00;;;;;;;;;10.50;9.75;;;;;6.49;66.43;101639.50;5049569;28;57757;-77
2021/11/30 01:09:25;;;;;;;;;9.75;9.25;;;;;6.53;66.13;101630.94;5039678;28;56890;-77
2021/11/30 01:11:51;;;;;;;;;11.75;11.25;;;;;6.59;66.38;101632.91;5038703;28;45422;-76
2021/11/30 01:14:16;;;;;;;;;9.50;9.50;;;;;6.62;66.29;101627.81;5035355;28;45513;-79
2021/11/30 01:16:42;;;;;;;;;14.50;9.75;;;;;6.55;66.21;101609.19;5044330;28;45420;-78
2021/11/30 01:19:07;;;;;;;;;11.50;9.50;;;;;6.67;66.12;101632.41;5054349;28;46652;-77
2021/11/30 01:21:33;;;;;;;;;11.25;8.75;;;;;6.69;66.12;101628.09;5044944;28;60966;-78
2021/11/30 01:23:58;;;;;;;;;11.75;8.50;;;;;6.74;66.27;101630.91;5051360;28;45521;-76
2021/11/30 01:26:24;;;;;;;;;4.00;4.00;;;;;6.77;66.04;101621.44;5045189;28;45696;-80
2021/11/30 01:28:49;;;;;;;;;10.75;8.50;;;;;6.84;66.11;101617.31;5051029;28;63514;-77
2021/11/30 01:31:14;;;;;;;;;8.50;6.50;;;;;6.88;66.28;101607.81;5046750;28;45340;-76
2021/11/30 01:33:40;;;;;;;;;16.50;9.75;;;;;6.89;65.85;101606.97;5025327;28;62762;-78
2021/11/30 01:36:06;;;;;;;;;9.00;9.00;;;;;6.85;66.34;101598.09;5057635;28;45275;-79
2021/11/30 01:38:32;;;;;;;;;9.50;9.50;;;;;6.91;66.18;101606.19;5025483;28;46118;-77
2021/11/30 01:41:00;;;;;;;;;10.00;8.50;;;;;6.87;66.21;101603.38;5043770;28;45482;-76
2021/11/30 01:43:28;;;;;;;;;12.50;8.00;;;;;6.90;66.44;101600.88;5050649;28;45209;-78
2021/11/30 01:46:08;;;;;;;;;10.00;8.00;;;;;6.90;66.41;101600.88;5038792;28;45739;-79
2021/11/30 01:51:18;;;;;;;;;10.25;10.25;;;;;6.90;66.62;101586.03;5041561;28;45386;-78
2021/11/30 01:53:43;;;;;;;;;9.50;9.00;;;;;6.93;66.48;101594.03;5055410;28;45417;-76
2021/11/30 01:56:27;;;;;;;;;12.50;10.00;;;;;6.95;66.62;101587.09;5042471;28;45534;-76
2021/11/30 01:58:52;;;;;;;;;10.75;9.00;;;;;6.94;66.42;101579.19;5023687;28;45832;-76
2021/11/30 02:01:18;;;;;;;;;11.00;7.75;;;;;6.97;66.35;101577.53;5029402;28;45343;-77
2021/11/30 02:03:49;;;;;;;;;11.25;9.75;;;;;7.03;66.67;101592.63;5038239;28;45546;-76
2021/11/30 02:06:17;;;;;;;;;15.25;10.50;;;;;7.02;66.38;101575.09;5034767;28;45568;-76
2021/11/30 02:08:46;;;;;;;;;9.25;9.25;;;;;7.08;66.43;101592.00;5022201;28;45557;-79
2021/11/30 02:11:12;;;;;;;;;11.50;9.00;;;;;7.09;66.53;101587.63;5043827;28;45464;-76
2021/11/30 02:13:37;;;;;;;;;10.00;9.00;;;;;7.08;66.19;101581.50;5057000;28;45334;-76
2021/11/30 02:16:07;;;;;;;;;10.00;9.00;;;;;7.09;66.47;101578.03;5022088;28;54938;-76
2021/11/30 02:18:33;;;;;;;;;7.50;7.50;;;;;7.12;66.31;101571.97;5054705;28;45694;-79
2021/11/30 02:21:02;;;;;;;;;13.50;9.50;;;;;7.14;66.58;101561.50;5055065;28;45467;-79
2021/11/30 02:26:10;;;;;;;;;10.75;9.25;;;;;7.00;66.47;101555.78;5051635;28;45406;-77
2021/11/30 02:28:36;;;;;;;;;12.25;9.75;;;;;6.94;66.29;101547.69;4995402;28;48048;-76
2021/11/30 02:31:01;;;;;;;;;14.25;7.00;;;;;6.90;66.49;101537.88;5021364;28;45507;-80
2021/11/30 02:33:27;;;;;;;;;11.00;9.50;;;;;6.91;66.67;101545.81;5019297;28;45478;-78
2021/11/30 02:35:53;;;;;;;;;11.00;10.00;;;;;6.90;66.91;101551.00;5039038;28;45560;-77
2021/11/30 02:38:21;;;;;;;;;10.00;10.00;;;;;6.93;66.89;101559.03;5032112;28;47400;-77
2021/11/30 02:40:46;;;;;;;;;13.00;9.00;;;;;6.96;66.88;101549.50;5019221;28;45462;-77
2021/11/30 02:43:14;;;;;;;;;11.50;10.00;;;;;6.93;66.67;101538.91;5032279;28;45792;-76
2021/11/30 02:45:40;;;;;;;;;10.00;9.50;;;;;7.00;66.73;101540.91;5027944;28;45530;-76
2021/11/30 02:48:05;;;;;;;;;10.25;9.00;;;;;7.00;66.59;101526.88;5042860;28;45866;-78
2021/11/30 02:50:38;;;;;;;;;9.00;9.00;;;;;7.02;66.54;101530.44;5037633;28;45526;-76
2021/11/30 02:53:15;;;;;;;;;11.75;9.00;;;;;7.02;66.55;101547.09;5043080;28;45375;-76
2021/11/30 02:55:41;;;;;;;;;12.25;10.00;;;;;7.03;66.91;101550.63;5006240;28;45383;-79
2021/11/30 02:58:06;;;;;;;;;9.75;8.00;;;;;7.07;66.66;101556.03;5054819;28;45601;-80
2021/11/30 03:00:32;;;;;;;;;11.00;10.50;;;;;7.12;66.90;101552.69;5054448;28;53613;-78
2021/11/30 03:02:57;;;;;;;;;13.25;9.50;;;;;7.20;66.77;101561.75;5042901;28;45340;-77
2021/11/30 03:05:23;;;;;;;;;12.25;10.00;;;;;7.27;66.85;101545.38;5048595;28;45569;-78
2021/11/30 03:07:48;;;;;;;;;11.50;10.25;;;;;7.32;66.56;101551.69;5053003;28;46143;-77
2021/11/30 03:10:18;;;;;;;;;6.50;6.50;;;;;7.38;66.47;101551.91;5028219;28;62271;-79
2021/11/30 03:12:50;;;;;;;;;7.00;7.00;;;;;7.43;66.47;101552.06;5023782;28;45441;-78
2021/11/30 03:15:20;;;;;;;;;14.25;7.75;;;;;7.46;66.53;101562.69;5046667;28;45580;-80
2021/11/30 03:17:46;;;;;;;;;10.75;9.50;;;;;7.48;66.01;101563.63;5033118;28;45584;-80
2021/11/30 03:20:18;;;;;;;;;11.00;7.75;;;;;7.44;66.31;101554.75;5027581;28;45498;-77
2021/11/30 03:22:45;;;;;;;;;11.00;7.50;;;;;7.49;66.03;101554.91;5023079;28;45616;-77
2021/11/30 03:25:11;;;;;;;;;10.50;10.50;;;;;7.51;66.29;101558.47;5048682;28;45631;-77
2021/11/30 03:27:36;;;;;;;;;12.75;7.25;;;;;7.53;66.15;101555.06;5052324;28;46483;-79
2021/11/30 03:30:06;;;;;;;;;10.25;8.25;;;;;7.52;65.88;101555.03;5032512;28;45366;-77
2021/11/30 03:35:19;;;;;;;;;11.75;8.75;;;;;7.58;66.10;101560.50;5047187;28;45340;-76
2021/11/30 03:37:47;;;;;;;;;13.50;9.00;;;;;7.62;65.98;101565.03;5050497;28;63471;-77
2021/11/30 03:40:15;;;;;;;;;10.25;10.25;;;;;7.64;66.10;101557.19;5051594;28;45519;-76
2021/11/30 03:42:40;;;;;;;;;12.00;9.00;;;;;7.67;66.05;101562.53;5041480;28;45584;-76
2021/11/30 03:45:06;;;;;;;;;12.25;9.00;;;;;7.65;66.23;101558.97;5048424;28;45650;-80
2021/11/30 03:47:32;;;;;;;;;13.75;8.25;;;;;7.69;66.14;101558.22;5029286;28;45442;-78
2021/11/30 03:50:00;;;;;;;;;12.75;10.00;;;;;7.72;66.55;101567.09;5027068;28;57722;-76
2021/11/30 03:52:28;;;;;;;;;14.25;12.25;;;;;7.73;66.46;101565.38;5052809;28;53701;-76
2021/11/30 03:54:57;;;;;;;;;11.00;8.50;;;;;7.71;66.50;101560.06;5058352;28;49987;-79
2021/11/30 03:57:22;;;;;;;;;12.75;10.00;;;;;7.72;66.65;101568.84;5047751;28;55411;-76
2021/11/30 03:59:48;;;;;;;;;12.75;10.50;;;;;7.71;66.75;101569.69;5037106;28;45390;-79
2021/11/30 04:02:15;;;;;;;;;17.75;11.50;;;;;7.67;67.01;101567.78;5044067;28;56283;-78
2021/11/30 04:04:43;;;;;;;;;15.25;14.25;;;;;7.63;66.80;101569.44;5047428;28;45433;-77
2021/11/30 04:07:09;;;;;;;;;10.75;10.25;;;;;7.62;67.06;101554.50;5037150;28;47654;-77
2021/11/30 04:09:34;;;;;;;;;11.00;8.25;;;;;7.63;66.82;101552.78;5040679;28;45515;-77
2021/11/30 04:12:00;;;;;;;;;10.50;10.50;;;;;7.61;67.81;101557.94;5027169;28;55649;-77
2021/11/30 04:14:25;;;;;;;;;13.25;12.00;;;;;7.60;67.51;101564.06;5030628;28;45497;-76
2021/11/30 04:16:51;;;;;;;;;10.00;10.00;;;;;7.62;67.44;101559.75;5033608;28;59766;-77
2021/11/30 04:19:16;;;;;;;;;14.00;10.75;;;;;7.60;67.66;101541.28;5040611;28;45388;-77
2021/11/30 04:21:42;;;;;;;;;10.00;10.00;;;;;7.61;67.95;101542.19;5037431;28;45323;-76
2021/11/30 04:24:07;;;;;;;;;10.50;8.25;;;;;7.58;67.87;101545.63;5036758;28;53468;-76
2021/11/30 04:26:32;;;;;;;;;12.00;10.00;;;;;7.59;67.85;101536.88;5047173;28;59496;-76
2021/11/30 04:28:58;;;;;;;;;14.75;8.75;;;;;7.58;68.12;101537.72;5045573;28;45497;-77
2021/11/30 04:31:23;;;;;;;;;15.75;11.75;;;;;7.53;68.00;101523.53;5056949;28;45446;-76
2021/11/30 04:33:49;;;;;;;;;10.25;10.25;;;;;7.56;68.34;101533.25;5052311;28;45251;-77
2021/11/30 04:36:14;;;;;;;;;11.00;8.75;;;;;7.57;68.18;101535.06;5031892;28;58659;-76
2021/11/30 04:38:40;;;;;;;;;7.00;7.00;;;;;7.56;68.43;101528.00;5045162;28;45240;-76
2021/11/30 04:41:05;;;;;;;;;10.50;10.50;;;;;7.61;68.28;101545.69;5041219;28;45241;-79
2021/11/30 04:43:35;;;;;;;;;11.25;10.00;;;;;7.57;68.53;101545.56;5044860;28;45285;-79
2021/11/30 04:46:19;;;;;;;;;9.75;9.00;;;;;7.56;68.51;101544.69;5030971;28;45792;-78
2021/11/30 04:48:53;;;;;;;;;11.50;8.75;;;;;7.56;68.78;101547.31;5054051;28;45443;-78
2021/11/30 04:51:19;;;;;;;;;11.75;10.25;;;;;7.56;68.87;101539.41;5030669;28;45458;-77
2021/11/30 04:53:46;;;;;;;;;10.00;9.25;;;;;7.54;69.32;101537.56;5034429;28;45427;-77
2021/11/30 04:56:14;;;;;;;;;11.50;8.25;;;;;7.49;69.14;101534.78;5040395;28;47616;-77
2021/11/30 04:58:39;;;;;;;;;15.50;8.75;;;;;7.50;69.18;101530.41;5055916;28;45294;-77
2021/11/30 05:01:05;;;;;;;;;10.75;9.50;;;;;7.49;69.27;101536.50;5056922;28;45490;-76
2021/11/30 05:03:30;;;;;;;;;14.50;10.75;;;;;7.49;69.40;101547.91;5041851;28;59482;-79
2021/11/30 05:05:56;;;;;;;;;8.75;7.00;;;;;7.47;69.67;101549.59;5032654;28;64567;-78
2021/11/30 05:08:21;;;;;;;;;12.50;8.75;;;;;7.44;69.67;101541.59;5051270;28;45227;-77
2021/11/30 05:10:46;;;;;;;;;9.75;9.75;;;;;7.45;69.94;101542.50;5019770;28;58829;-77
2021/11/30 05:13:13;;;;;;;;;11.25;9.75;;;;;7.41;69.96;101533.63;5051260;28;51516;-78
2021/11/30 05:15:38;;;;;;;;;7.00;6.50;;;;;7.39;70.16;101535.28;5038182;28;45666;-77
2021/11/30 05:18:04;;;;;;;;;10.75;10.00;;;;;7.29;70.22;101520.94;5054533;28;59035;-79
2021/11/30 05:20:29;;;;;;;;;4.25;1.00;;;;;7.37;70.37;101523.84;5055546;28;45359;-78
2021/11/30 05:22:55;;;;;;;;;9.25;7.25;;;;;7.39;70.47;101523.91;5055750;28;47762;-77
2021/11/30 05:25:24;;;;;;;;;10.25;8.75;;;;;7.39;70.18;101518.63;5021786;28;53852;-78
2021/11/30 05:27:49;;;;;;;;;6.75;6.75;;;;;7.40;70.82;101526.56;5039401;28;46047;-79
2021/11/30 05:30:18;;;;;;;;;6.50;4.50;;;;;7.43;70.69;101504.78;5055870;28;46160;-77
2021/11/30 05:32:43;;;;;;;;;9.00;9.00;;;;;7.42;70.59;101514.41;5039997;28;45645;-76
2021/11/30 05:35:09;;;;;;;;;15.75;8.25;;;;;7.33;71.10;101493.03;5045513;28;61821;-74
2021/11/30 05:37:34;;;;;;;;;9.50;9.50;;;;;7.38;70.81;101504.59;5037320;28;45499;-73
2021/11/30 05:40:00;;;;;;;;;8.00;7.25;;;;;7.35;70.70;101505.41;5047338;28;59630;-76
2021/11/30 05:42:25;;;;;;;;;13.25;9.25;;;;;7.34;70.96;101516.72;5057865;28;45482;-74
2021/11/30 05:44:51;;;;;;;;;10.25;9.25;;;;;7.36;71.28;101516.81;5043869;28;61994;-75
2021/11/30 05:47:17;;;;;;;;;10.00;7.00;;;;;7.30;72.20;101511.34;5054832;28;45359;-76
2021/11/30 05:49:42;;;;;;;;;13.50;6.50;;;;;7.23;72.43;101506.69;5038406;28;45475;-74
2021/11/30 05:52:08;;;;;;;;;9.75;9.75;;;;;7.23;72.49;101520.72;5057477;28;45408;-75
2021/11/30 05:54:33;;;;;;;;;10.00;8.50;;;;;7.20;72.33;101515.38;5050519;28;46337;-75
2021/11/30 05:56:58;;;;;;;;;9.75;9.25;;;;;7.17;72.77;101510.00;5037570;28;45233;-75
2021/11/30 05:59:26;;;;;;;;;11.00;9.00;;;;;7.14;72.96;101509.00;5048954;28;61799;-74
2021/11/30 06:01:53;;;;;;;;;10.75;7.25;;;;;7.10;73.06;101505.38;5039509;28;45474;-73
2021/11/30 06:04:18;;;;;;;;;9.75;6.25;;;;;7.06;73.49;101513.97;5038482;28;45517;-72
2021/11/30 06:06:43;;;;;;;;;10.25;10.00;;;;;7.05;73.68;101517.44;5052103;28;65127;-72
2021/11/30 06:09:09;;;;;;;;;10.25;8.50;;;;;7.08;73.24;101507.03;5047498;28;57243;-72
2021/11/30 06:11:34;;;;;;;;;9.75;9.75;;;;;7.04;73.22;101498.19;5037577;28;45361;-72
2021/11/30 06:14:00;;;;;;;;;9.00;8.50;;;;;7.07;73.31;101511.41;5048875;28;58677;-74
2021/11/30 06:16:26;;;;;;;;;10.50;9.00;;;;;7.08;73.56;101510.59;5055455;28;45529;-74
2021/11/30 06:18:51;;;;;;;;;11.00;9.50;;;;;7.12;73.65;101514.19;5053899;28;45533;-73
2021/11/30 06:21:17;;;;;;;;;10.75;9.50;;;;;7.11;73.68;101496.66;5038903;28;45632;-73
2021/11/30 06:23:43;;;;;;;;;5.25;5.00;;;;;7.17;73.62;101488.09;5052650;28;45712;-72
2021/11/30 06:26:09;;;;;;;;;11.00;7.75;;;;;7.18;73.78;101500.38;5049039;28;55965;-72
2021/11/30 06:28:34;;;;;;;;;7.50;7.50;;;;;7.17;73.60;101491.63;5048783;28;45370;-72
2021/11/30 06:31:00;;;;;;;;;9.00;9.00;;;;;7.25;73.07;101503.31;5041915;28;45502;-73
2021/11/30 06:33:25;;;;;;;;;11.00;10.00;;;;;7.30;72.99;101512.25;5057023;28;45943;-73
2021/11/30 06:35:51;;;;;;;;;6.25;6.00;;;;;7.35;72.89;101515.91;5055963;28;56564;-73
2021/11/30 06:38:16;;;;;;;;;8.75;7.25;;;;;7.41;72.79;101510.00;5056335;28;56169;-73
2021/11/30 06:40:42;;;;;;;;;12.50;8.25;;;;;7.43;72.44;101507.41;5056490;28;45529;-73
2021/11/30 06:43:07;;;;;;;;;10.00;9.75;;;;;7.47;72.56;101497.06;5056610;28;57538;-73
2021/11/30 06:45:32;;;;;;;;;10.00;8.25;;;;;7.54;72.40;101498.16;5056157;28;45447;-73
2021/11/30 06:47:58;;;;;;;;;8.75;7.00;;;;;7.56;72.10;101505.25;5052221;28;45477;-73
2021/11/30 06:50:23;;;;;;;;;11.50;9.00;;;;;7.61;71.93;101493.13;5034924;28;45585;-73
2021/11/30 06:52:50;;;;;;;;;11.50;10.50;;;;;7.64;71.89;101508.13;5055841;28;46131;-73
2021/11/30 06:55:15;;;;;;;;;10.50;8.75;;;;;7.68;72.02;101512.66;5055019;28;45423;-74
2021/11/30 06:57:42;;;;;;;;;12.75;9.00;;;;;7.71;71.91;101511.84;5056807;28;45488;-74
2021/11/30 07:00:08;;;;;;;;;7.00;7.00;;;;;7.72;71.86;101498.75;5056606;28;45370;-73
2021/11/30 07:02:35;;;;;;;;;11.75;7.00;;;;;7.69;71.94;101500.41;5040425;28;47572;-73
2021/11/30 07:05:12;;;;;;;;;12.25;9.50;;;;;7.72;71.60;101495.22;5046976;28;45386;-73
2021/11/30 07:10:24;;;;;;;;;11.25;8.25;;;;;7.72;71.68;101498.75;5049653;28;46908;-73
2021/11/30 07:13:15;;;;;;;;;7.50;6.00;;;;;7.72;71.87;101504.00;5055106;28;47504;-76
2021/11/30 07:15:41;;;;;;;;;11.25;6.25;;;;;7.68;71.44;101502.16;5048740;28;45451;-74
2021/11/30 07:18:07;;;;;;;;;17.25;9.50;;;;;7.67;71.69;101510.88;5055543;28;45822;-73
2021/11/30 07:20:32;;;;;;;;;10.50;10.00;;;;;7.72;71.57;101514.53;5055719;28;45428;-74
2021/11/30 07:22:58;;;;;;;;;14.25;11.00;;;;;7.75;71.67;101516.38;5050399;28;57752;-73
2021/11/30 07:25:26;;;;;;;;;14.75;12.25;;;;;7.76;71.47;101519.03;5051979;28;45373;-74
2021/11/30 07:27:53;;;;;;;;;14.50;11.50;;;;;7.74;71.73;101512.84;5051903;28;45470;-74
2021/11/30 07:30:18;;;;;;;;;10.75;9.75;;;;;7.78;71.75;101520.00;5049053;28;45636;-73
2021/11/30 07:32:44;;;;;;;;;14.25;10.50;;;;;7.77;71.64;101498.91;5051334;28;45755;-73
2021/11/30 07:35:09;;;;;;;;;14.75;12.00;;;;;7.80;71.73;101515.69;5045346;28;63239;-72
2021/11/30 07:37:35;;;;;;;;;15.75;9.75;;;;;7.85;71.65;101521.09;5052341;28;45465;-73
2021/11/30 07:40:00;;;;;;;;;16.25;10.50;;;;;7.88;71.65;101527.38;5035738;28;58505;-73
2021/11/30 07:42:30;;;;;;;;;11.00;10.75;;;;;7.86;71.93;101518.50;5055457;28;59188;-73
2021/11/30 07:44:55;;;;;;;;;16.00;11.75;;;;;7.86;72.10;101528.13;5040226;28;45570;-73
2021/11/30 07:47:21;;;;;;;;;10.25;10.25;;;;;7.85;72.18;101519.38;5054871;28;56482;-73
2021/11/30 07:49:46;;;;;;;;;11.00;11.00;;;;;7.87;72.01;101522.03;5054722;28;45367;-73
2021/11/30 07:52:13;;;;;;;;;9.25;9.00;;;;;7.84;71.51;101528.09;5034680;28;55449;-73
2021/11/30 07:54:38;;;;;;;;;16.00;11.00;;;;;7.84;71.95;101512.31;5048858;28;45414;-73
2021/11/30 07:57:04;;;;;;;;;11.00;10.25;;;;;7.90;71.82;101530.03;5055300;28;46055;-73
2021/11/30 07:59:29;;;;;;;;;11.00;11.00;;;;;7.91;71.82;101529.19;5053848;28;45672;-74
2021/11/30 08:01:54;;;;;;;;;14.75;9.50;;;;;7.84;71.83;101520.22;5032377;28;45558;-74
2021/11/30 08:04:20;;;;;;;;;15.00;12.00;;;;;7.90;71.53;101537.91;5054580;28;55227;-73
2021/11/30 08:06:45;;;;;;;;;14.75;11.00;;;;;7.88;71.81;101540.50;5048625;28;45467;-73
2021/11/30 08:09:12;;;;;;;;;12.50;10.25;;;;;7.88;71.90;101536.97;5055593;28;45480;-73
2021/11/30 08:11:37;;;;;;;;;18.25;14.50;;;;;7.90;71.84;101519.53;5058877;28;47342;-73
2021/11/30 08:14:03;;;;;;;;;10.25;10.25;;;;;7.93;71.85;101540.63;5056295;28;45550;-73
2021/11/30 08:16:28;;;;;;;;;16.50;12.00;;;;;7.95;71.73;101527.56;5058236;28;45891;-73
2021/11/30 08:18:56;;;;;;;;;15.25;13.25;;;;;7.96;71.64;101531.97;5057658;28;50237;-74
2021/11/30 08:21:21;;;;;;;;;15.00;12.75;;;;;7.98;71.48;101532.91;5057129;28;67329;-73
2021/11/30 08:23:47;;;;;;;;;15.00;13.00;;;;;8.00;71.76;101549.66;5047696;28;63299;-73
2021/11/30 08:26:12;;;;;;;;;18.50;15.00;;;;;8.01;71.31;101535.66;5055819;28;45267;-73
2021/11/30 08:28:39;;;;;;;;;15.75;12.50;;;;;7.95;71.57;101536.34;5057945;28;45602;-73
2021/11/30 08:31:04;;;;;;;;;15.50;15.50;;;;;7.98;71.64;101539.06;5056851;28;46464;-73
2021/11/30 08:33:30;;;;;;;;;15.50;15.25;;;;;7.94;71.54;101524.03;5056809;28;45288;-72
2021/11/30 08:35:56;;;;;;;;;6.00;6.00;;;;;8.03;71.53;101531.31;5054126;28;45458;-73
2021/11/30 08:38:21;;;;;;;;;17.25;13.00;;;;;8.03;71.55;101541.84;5056415;28;45465;-73
2021/11/30 08:40:47;;;;;;;;;19.25;14.00;;;;;8.03;71.72;101536.56;5056800;28;45281;-73
2021/11/30 08:43:12;;;;;;;;;11.50;11.00;;;;;8.02;71.52;101532.16;5050674;28;45564;-74
2021/11/30 08:45:37;;;;;;;;;13.50;13.50;;;;;8.09;71.57;101521.00;5056350;28;45436;-75
2021/11/30 08:48:03;;;;;;;;;20.25;14.75;;;;;8.11;71.44;101536.00;5056297;28;55290;-75
2021/11/30 08:50:29;;;;;;;;;11.25;11.00;;;;;8.16;71.30;101537.88;5052383;28;47339;-74
2021/11/30 08:52:54;;;;;;;;;15.25;9.50;;;;;8.18;71.31;101533.56;5138406;22;45599;-75
2021/11/30 08:55:19;;;;;;;;;17.25;15.00;;;;;8.16;71.50;101524.72;5041894;28;45947;-76
2021/11/30 08:57:45;;;;;;;;;20.50;15.00;;;;;8.22;71.44;101528.44;5036736;28;45421;-74
2021/11/30 09:00:13;;;;;;;;;14.75;13.25;;;;;8.26;71.21;101526.81;5035608;28;67184;-75
2021/11/30 09:02:38;;;;;;;;;17.25;14.50;;;;;8.31;71.24;101517.28;5028503;28;45391;-74
2021/11/30 09:05:12;;;;;;;;;16.50;13.00;;;;;8.33;71.54;101513.88;5025330;28;45677;-74
2021/11/30 09:07:38;;;;;;;;;15.25;11.00;;;;;8.42;71.26;101517.69;5034174;28;45321;-74
2021/11/30 09:10:42;;;;;;;;;7.25;6.50;;;;;8.46;71.31;101528.34;5031995;28;46874;-74
2021/11/30 09:13:07;;;;;;;;;16.25;12.00;;;;;8.48;71.03;101520.50;5144534;22;45620;-74
2021/11/30 09:15:33;;;;;;;;;15.75;15.75;;;;;8.56;71.13;101526.88;5056926;28;45649;-73
2021/11/30 09:17:59;;;;;;;;;19.75;17.00;;;;;8.54;71.09;101516.31;5055313;28;45564;-74
2021/11/30 09:20:24;;;;;;;;;19.00;15.00;;;;;8.57;71.15;101516.38;5059499;28;58071;-75
2021/11/30 09:22:50;;;;;;;;;21.25;16.00;;;;;8.60;71.50;101531.41;5058785;28;45450;-74
2021/11/30 09:25:16;;;;;;;;;22.50;17.00;;;;;8.60;71.19;101524.38;5048307;28;45625;-74
2021/11/30 09:27:43;;;;;;;;;14.25;14.00;;;;;8.64;71.31;101530.66;5056621;28;45479;-75
2021/11/30 09:30:09;;;;;;;;;14.50;12.00;;;;;8.62;71.22;101540.22;5056685;28;46526;-75
2021/11/30 09:32:34;;;;;;;;;13.25;12.00;;;;;8.59;71.27;101521.72;5056963;28;45676;-74
2021/11/30 09:35:00;;;;;;;;;15.50;13.00;;;;;8.62;71.18;101525.31;5051642;28;45546;-74
2021/11/30 09:37:26;;;;;;;;;15.75;13.00;;;;;8.63;71.30;101542.91;5055774;28;45503;-74
2021/11/30 09:39:51;;;;;;;;;16.50;13.50;;;;;8.64;71.35;101528.00;5047887;28;47720;-74
2021/11/30 09:42:17;;;;;;;;;16.25;13.50;;;;;8.62;71.32;101520.06;5052881;28;46741;-74
2021/11/30 09:44:45;;;;;;;;;18.25;14.75;;;;;8.66;71.64;101528.94;5056136;28;45560;-74
2021/11/30 09:47:10;;;;;;;;;16.75;14.75;;;;;8.70;71.11;101538.72;5056762;28;45554;-74
2021/11/30 09:49:36;;;;;;;;;21.25;14.75;;;;;8.72;71.18;101536.13;5055386;28;51166;-74
2021/11/30 09:52:01;;;;;;;;;20.50;17.00;;;;;8.76;71.25;101528.38;5030933;28;45487;-74
2021/11/30 09:54:26;;;;;;;;;25.25;19.50;;;;;8.80;71.30;101534.63;5056339;28;52075;-73
2021/11/30 09:56:52;;;;;;;;;22.25;15.50;;;;;8.79;71.40;101536.38;5054830;28;56010;-76
2021/11/30 09:59:17;;;;;;;;;19.00;16.25;;;;;8.78;71.62;101558.25;5048478;28;62122;-75
2021/11/30 10:01:43;;;;;;;;;19.75;16.25;;;;;8.76;71.31;101549.44;5051646;28;59326;-74
2021/11/30 10:04:08;;;;;;;;;23.75;17.25;;;;;8.73;71.72;101544.06;5054740;28;46125;-74
2021/11/30 10:06:33;;;;;;;;;25.50;18.75;;;;;8.77;71.64;101552.97;5055383;28;45446;-75
2021/11/30 10:08:59;;;;;;;;;23.00;18.25;;;;;8.78;71.61;101536.31;5055343;28;46499;-75
2021/11/30 10:11:33;;;;;;;;;23.50;18.25;;;;;8.90;71.39;101547.22;5055136;28;45388;-75
2021/11/30 10:14:20;;;;;;;;;23.25;20.75;;;;;9.01;71.27;101531.72;5055951;28;45460;-75
2021/11/30 10:17:09;;;;;;;;;24.00;18.50;;;;;9.05;71.31;101541.47;5054243;28;45593;-75
2021/11/30 10:19:34;;;;;;;;;22.00;16.25;;;;;9.02;71.23;101530.88;5056284;28;46732;-75
2021/11/30 10:21:59;;;;;;;;;22.00;16.75;;;;;9.09;71.18;101535.47;5051638;28;58744;-75
2021/11/30 10:24:25;;;;;;;;;17.75;15.75;;;;;9.10;71.18;101535.50;5052608;28;61124;-75
2021/11/30 10:26:50;;;;;;;;;5.75;5.75;;;;;9.10;71.09;101540.75;5056502;28;45406;-75
2021/11/30 10:29:17;;;;;;;;;18.75;13.50;;;;;9.11;71.27;101536.41;5037357;28;61600;-75
2021/11/30 10:31:47;;;;;;;;;16.75;16.75;;;;;9.04;71.30;101524.78;5045893;28;45820;-74
2021/11/30 10:34:17;;;;;;;;;21.50;17.00;;;;;9.06;71.26;101528.38;5036934;28;46467;-74
2021/11/30 10:36:58;;;;;;;;;20.50;15.50;;;;;9.09;71.48;101546.88;5054567;28;45461;-74
2021/11/30 10:39:32;;;;;;;;;13.75;13.75;;;;;9.10;71.30;101531.97;5052783;28;47364;-74
2021/11/30 10:42:19;;;;;;;;;16.25;12.75;;;;;9.12;71.48;101538.19;5052788;28;45622;-74
2021/11/30 10:44:46;;;;;;;;;15.75;12.25;;;;;9.14;71.60;101531.22;5055911;28;45291;-74
2021/11/30 10:47:16;;;;;;;;;13.25;12.75;;;;;9.10;71.47;101516.16;5055412;28;45533;-73
2021/11/30 10:49:45;;;;;;;;;17.00;16.00;;;;;9.16;71.54;101533.06;5055309;28;47686;-72
2021/11/30 10:52:15;;;;;;;;;17.00;13.50;;;;;9.19;71.72;101522.59;5051806;28;45464;-71
2021/11/30 10:54:40;;;;;;;;;16.75;12.25;;;;;9.22;71.29;101527.06;5055451;28;45497;-74
2021/11/30 10:57:06;;;;;;;;;15.75;14.00;;;;;9.25;71.37;101513.06;5046566;28;48553;-72
2021/11/30 10:59:31;;;;;;;;;10.25;10.25;;;;;9.26;71.19;101505.19;5048586;28;56813;-72
2021/11/30 11:01:56;;;;;;;;;15.75;11.75;;;;;9.33;71.63;101519.44;5054711;28;45434;-72
2021/11/30 11:04:33;;;;;;;;;12.00;11.00;;;;;9.37;71.36;101510.75;5036348;28;45391;-73
2021/11/30 11:07:12;;;;;;;;;13.50;10.00;;;;;9.41;71.42;101508.25;5056046;28;45435;-73
2021/11/30 11:09:47;;;;;;;;;16.00;12.25;;;;;9.46;71.13;101505.72;5054411;28;46668;-74
2021/11/30 11:12:13;;;;;;;;;10.00;9.00;;;;;9.46;71.27;101511.00;5052951;28;45316;-73
2021/11/30 11:14:46;;;;;;;;;12.25;12.00;;;;;9.45;71.38;101507.47;5056194;28;45248;-72
2021/11/30 11:17:12;;;;;;;;;14.50;11.00;;;;;9.41;71.78;101502.97;5054096;28;45503;-72
2021/11/30 11:19:42;;;;;;;;;12.25;10.25;;;;;9.43;71.75;101498.66;5019807;28;46488;-72
2021/11/30 11:22:15;;;;;;;;;13.00;10.00;;;;;9.41;71.64;101504.72;5057546;28;45581;-72
2021/11/30 11:24:42;;;;;;;;;16.75;11.00;;;;;9.38;71.48;101495.00;5055613;28;45486;-72
2021/11/30 11:27:07;;;;;;;;;12.50;9.50;;;;;9.36;71.98;101495.78;5062662;28;45638;-72
2021/11/30 11:29:32;;;;;;;;;12.75;9.50;;;;;9.38;71.80;101473.03;5036675;28;66188;-72
2021/11/30 11:31:59;;;;;;;;;17.75;13.50;;;;;9.44;72.37;101484.59;5068090;28;65530;-72